Hayward, WI

1:24 PM CST on December 21, 2014 (GMT -0600)
Rice Lake Regional-Carl's | Change Station
CLOSE
Current Station
Airport
Location: Rice Lake,
Elevation: 1106 ft
Nearby Weather Stations

Elev 1106 ft 45.42 °N, 91.78 °W | Updated 14 minutes ago

Snow
Snow
32 °F
Feels Like 25 °F
N
9
Wind Variable Wind from SE

Today
High -- | Low -- °F
--% Chance of Precip.
Yesterday
High -- | Low -- °F
Precip. -- in
7:44 AM 4:22 PM
Waning Crescent, 0% visible
Pressure 29.84 in
Visibility 1.0 miles
Clouds Overcast 300 ft
Windchill 25 °F
Dew Point 32 °F
Humidity 98%
Rainfall 0.05 in
Snow Depth Not available.
UV 0 out of 12
Pollen .10 out of 12
Air Quality Not available.
Flu Activity Not available.
METAR KRPD 211910Z AUTO 13008KT 1SM -SN OVC003 00/00 A2984 RMK AO2 T00021001

More Conditions Fewer Conditions

Pressure 29.84 in
Visibility 1.0 miles
Clouds Overcast 300 ft
Windchill 25 °F
Dew Point 32 °F
Humidity 98%
Rainfall 0.05 in
Snow Depth Not available.
UV 0 out of 12
Pollen .10 out of 12
Air Quality Not available.
Flu Activity Not available.
METAR KRPD 211910Z AUTO 13008KT 1SM -SN OVC003 00/00 A2984 RMK AO2 T00021001

More Conditions Fewer Conditions

10-Day Weather Forecast

Almanac

Astronomy

Dec. 21, 2014 Rise Set
Actual Time
Civil Twilight
Nautical Twilight
Astronomical Twilight
Moon
Length of Visible Light
Length of Day
Tomorrow will be .
, % of the Moon is Illuminated

Today's Extremes

State Highs State Lows

Community

WunderPhotos

Upload Photos

1,779,466 photos uploaded!

WunderBlogs® & News

Nearby

Air Quality

  Air Quality AQ Index Pollutant
Not available.

Snow Depth

Station Depth Elevation

Earthquake Activity

City Distance Mag. Time & Date
Minimum magnitude displayed is 2.5.

Coastal Water Temperatures

Place Temperature

Nearby Weather Stations